Main page
METAR-TAF:

METAR-TAF

Airports :

King Khalid International Airport

Riyadh, Saudi Arabia

latitude: 24-56N, longitude: 046-43E, elevation: 614 m

Current weather observation

The report was made 49 minutes ago, at 00:00 UTC
Wind 6 kt from the South
Temperature 18°C
Humidity 49%
Pressure 1016 hPa
Visibility 10 km or more
no clouds below 1500 m and no cumulonimbus

METAR: OERK 160000Z 17006KT CAVOK 18/07 Q1016 NOSIG

Time: 03:49 (00:49 UTC)

Forecast

The report was made 1 hour and 49 minutes ago, at 23:00 UTC
Forecast valid from 16 at 00 UTC to 17 at 06 UTC
Wind 8 kt from the South/Southeast
Visibility: 6000 m
Temporary
from 16 at 00 UTC to 16 at 12 UTC
Visibility: 4000 m
haze

TAF: OERK 152300Z 1600/1706 16008KT 6000 NSC TEMPO 1600/1612 4000 HZ

Weather observations and forecasts of more than 4000 airports (METAR and TAF reports).

The available stations are represented by yellow and red dots on the map.

Hover mouse over dot to see the name of the station.

Then click to see weather observations and forecasts.

To change the map : click on the green buttons with a black cross to zoom in, on the green button with a dash to zoom out, or on the green arrows for adjacent maps.


METAR-TAF: